createdAt,value
2018-05-28T00:00:00.134Z,0.00
2018-05-28T00:01:00.118Z,0.00
2018-05-28T00:02:00.115Z,0.00
2018-05-28T00:04:00.090Z,0.00
2018-05-28T00:05:00.083Z,0.00
2018-05-28T00:06:00.122Z,0.00
2018-05-28T00:07:00.063Z,0.00
2018-05-28T00:08:00.056Z,0.00
2018-05-28T00:09:00.041Z,0.00
2018-05-28T00:10:00.029Z,0.00
2018-05-28T00:11:00.019Z,0.00
2018-05-28T00:12:00.021Z,0.00
2018-05-28T00:13:00.003Z,0.00
2018-05-28T00:13:59.993Z,0.00
2018-05-28T00:14:59.988Z,0.00
2018-05-28T00:15:59.974Z,0.00
2018-05-28T00:16:59.952Z,0.00
2018-05-28T00:17:59.952Z,0.00
2018-05-28T00:18:59.931Z,0.00
2018-05-28T00:19:59.930Z,0.00
2018-05-28T00:20:59.907Z,0.00
2018-05-28T00:21:59.993Z,0.00
2018-05-28T00:22:59.895Z,0.00
2018-05-28T00:23:59.888Z,0.00
2018-05-28T00:24:59.877Z,0.00
2018-05-28T00:25:59.958Z,0.00
2018-05-28T00:26:59.854Z,0.00
2018-05-28T00:27:59.841Z,0.00
2018-05-28T00:28:59.832Z,0.00
2018-05-28T00:29:59.818Z,0.00
2018-05-28T00:30:59.809Z,0.00
2018-05-28T00:31:59.802Z,0.00
2018-05-28T00:32:59.793Z,0.00
2018-05-28T00:33:59.782Z,0.00
2018-05-28T00:34:59.761Z,0.00
2018-05-28T00:35:59.758Z,0.00
2018-05-28T00:36:59.753Z,0.00
2018-05-28T00:37:59.728Z,0.00
2018-05-28T00:38:59.726Z,0.00
2018-05-28T00:39:59.713Z,0.00
2018-05-28T00:40:59.701Z,0.00
2018-05-28T00:41:59.693Z,0.00
2018-05-28T00:42:59.689Z,0.00
2018-05-28T00:44:59.658Z,0.00
2018-05-28T00:45:59.648Z,0.00
2018-05-28T00:46:59.642Z,0.00
2018-05-28T00:47:59.628Z,0.00
2018-05-28T00:48:59.625Z,0.00
2018-05-28T00:49:59.606Z,0.00
2018-05-28T00:50:59.600Z,0.00
2018-05-28T00:51:59.584Z,0.00
2018-05-28T00:52:59.569Z,0.00
2018-05-28T00:53:59.562Z,0.00
2018-05-28T00:54:59.555Z,0.00
2018-05-28T00:55:59.545Z,0.00
2018-05-28T00:56:59.532Z,0.00
2018-05-28T00:57:59.522Z,0.00
2018-05-28T00:59:59.500Z,0.00
2018-05-28T01:00:59.494Z,0.00
2018-05-28T01:01:59.477Z,0.00
2018-05-28T01:02:59.466Z,0.00
2018-05-28T01:03:59.463Z,0.00
2018-05-28T01:04:59.445Z,0.00
2018-05-28T01:05:59.435Z,0.00
2018-05-28T01:06:59.430Z,0.00
2018-05-28T01:07:59.446Z,0.00
2018-05-28T01:08:59.397Z,0.00
2018-05-28T01:09:59.390Z,0.00
2018-05-28T01:10:59.381Z,0.00
2018-05-28T01:11:59.366Z,0.00
2018-05-28T01:12:59.356Z,0.00
2018-05-28T01:13:59.353Z,0.00
2018-05-28T01:14:59.342Z,0.00
2018-05-28T01:15:59.326Z,0.00
2018-05-28T01:16:59.316Z,0.00
2018-05-28T01:17:59.301Z,0.00
2018-05-28T01:18:59.295Z,0.00
2018-05-28T01:19:59.282Z,0.00
2018-05-28T01:20:59.269Z,0.00
2018-05-28T01:21:59.263Z,0.00
2018-05-28T01:22:59.247Z,0.00
2018-05-28T01:23:59.236Z,0.00
2018-05-28T01:25:59.215Z,0.00
2018-05-28T01:26:59.208Z,0.00
2018-05-28T01:27:59.195Z,0.00
2018-05-28T01:28:59.194Z,0.00
2018-05-28T01:29:59.180Z,0.00
2018-05-28T01:30:59.165Z,0.00
2018-05-28T01:31:59.154Z,0.00
2018-05-28T01:32:59.149Z,0.00
2018-05-28T01:33:59.128Z,0.00
2018-05-28T01:34:59.119Z,0.00
2018-05-28T01:35:59.108Z,0.00
2018-05-28T01:36:59.096Z,0.00
2018-05-28T01:37:59.087Z,0.00
2018-05-28T01:38:59.081Z,0.00
2018-05-28T01:39:59.066Z,0.00
2018-05-28T01:40:59.058Z,0.00
2018-05-28T01:41:59.045Z,0.00
2018-05-28T01:42:59.036Z,0.00
2018-05-28T01:43:59.023Z,0.00
2018-05-28T01:44:59.011Z,0.00
2018-05-28T01:45:59.002Z,0.00
2018-05-28T01:46:58.987Z,0.00
2018-05-28T01:47:58.974Z,0.00
2018-05-28T01:48:58.968Z,0.00
2018-05-28T01:49:58.956Z,0.00
2018-05-28T01:50:58.946Z,0.00
2018-05-28T01:51:58.933Z,0.00
2018-05-28T01:52:58.923Z,0.00
2018-05-28T01:53:58.906Z,0.00
2018-05-28T01:54:58.897Z,0.00
2018-05-28T01:55:58.891Z,0.00
2018-05-28T01:56:58.878Z,0.00
2018-05-28T01:57:58.871Z,0.00
2018-05-28T01:58:58.855Z,0.00
2018-05-28T01:59:58.843Z,0.00
2018-05-28T02:00:58.834Z,0.00
2018-05-28T02:01:58.824Z,0.00
2018-05-28T02:02:58.810Z,0.00
2018-05-28T02:03:58.800Z,0.00
2018-05-28T02:04:58.785Z,0.00
2018-05-28T02:05:58.777Z,0.00
2018-05-28T02:06:58.772Z,0.00
2018-05-28T02:07:58.753Z,0.00
2018-05-28T02:08:58.742Z,0.00
2018-05-28T02:09:58.728Z,0.00
2018-05-28T02:10:58.722Z,0.00
2018-05-28T02:11:58.713Z,0.00
2018-05-28T02:12:58.704Z,0.00
2018-05-28T02:13:58.694Z,0.00
2018-05-28T02:14:58.688Z,0.00
2018-05-28T02:15:58.665Z,0.00
2018-05-28T02:17:58.650Z,0.00
2018-05-28T02:18:58.631Z,0.00
2018-05-28T02:19:58.627Z,0.00
2018-05-28T02:20:58.612Z,0.00
2018-05-28T02:21:58.604Z,0.00
2018-05-28T02:22:58.589Z,0.00
2018-05-28T02:23:58.641Z,0.00
2018-05-28T02:24:58.563Z,0.00
2018-05-28T02:25:58.587Z,0.00
2018-05-28T02:26:58.542Z,0.00
2018-05-28T02:27:58.633Z,0.00
2018-05-28T02:28:58.521Z,0.00
2018-05-28T02:29:58.608Z,0.00
2018-05-28T02:30:58.503Z,0.00
2018-05-28T02:31:58.537Z,0.00
2018-05-28T02:32:58.477Z,0.00
2018-05-28T02:33:58.464Z,0.00
2018-05-28T02:34:58.465Z,0.00
2018-05-28T02:35:58.457Z,0.00
2018-05-28T02:36:58.440Z,0.00
2018-05-28T02:38:58.411Z,0.00
2018-05-28T02:39:58.397Z,0.00
2018-05-28T02:40:58.384Z,0.00
2018-05-28T02:41:58.382Z,0.00
2018-05-28T02:42:58.365Z,0.00
2018-05-28T02:44:58.343Z,0.00
2018-05-28T02:45:58.334Z,0.00
2018-05-28T02:46:58.320Z,0.00
2018-05-28T02:47:58.313Z,0.00
2018-05-28T02:48:58.308Z,0.00
2018-05-28T02:49:58.281Z,0.00
2018-05-28T02:50:58.277Z,0.00
2018-05-28T02:51:58.266Z,0.00
2018-05-28T02:52:58.250Z,0.00
2018-05-28T02:53:58.237Z,0.00
2018-05-28T02:54:58.244Z,0.00
2018-05-28T02:55:58.224Z,0.00
2018-05-28T02:56:58.209Z,0.00
2018-05-28T02:57:58.201Z,0.00
2018-05-28T02:58:58.191Z,0.00
2018-05-28T02:59:58.176Z,0.00
2018-05-28T03:00:58.169Z,0.00
2018-05-28T03:01:58.162Z,0.00
2018-05-28T03:02:58.142Z,0.00
2018-05-28T03:03:58.131Z,0.00
2018-05-28T03:04:58.122Z,0.00
2018-05-28T03:05:58.113Z,0.00
2018-05-28T03:06:58.102Z,0.00
2018-05-28T03:07:58.092Z,0.00
2018-05-28T03:08:58.078Z,0.00
2018-05-28T03:09:58.063Z,0.00
2018-05-28T03:10:58.053Z,0.00
2018-05-28T03:11:58.046Z,0.00
2018-05-28T03:12:58.051Z,0.00
2018-05-28T03:13:58.022Z,0.00
2018-05-28T03:14:58.008Z,0.00
2018-05-28T03:15:57.992Z,0.00
2018-05-28T03:16:57.995Z,0.00
2018-05-28T03:17:57.974Z,0.00
2018-05-28T03:18:57.972Z,0.00
2018-05-28T03:19:57.946Z,0.00
2018-05-28T03:20:57.934Z,0.00
2018-05-28T03:21:57.931Z,0.00
2018-05-28T03:22:57.922Z,0.00
2018-05-28T03:23:57.902Z,0.00
2018-05-28T03:24:57.900Z,0.00
2018-05-28T03:25:57.876Z,0.00
2018-05-28T03:26:57.870Z,0.00
2018-05-28T03:27:57.860Z,0.00
2018-05-28T03:28:57.861Z,0.00
2018-05-28T03:29:57.843Z,0.00
2018-05-28T03:30:57.830Z,5.63
2018-05-28T03:31:57.823Z,5.63
2018-05-28T03:32:57.799Z,5.63
2018-05-28T03:33:57.788Z,5.63
2018-05-28T03:34:57.774Z,5.63
2018-05-28T03:35:57.781Z,5.63
2018-05-28T03:36:57.763Z,5.63
2018-05-28T03:37:57.746Z,5.63
2018-05-28T03:38:57.728Z,5.63
2018-05-28T03:39:57.722Z,5.63
2018-05-28T03:40:57.711Z,5.63
2018-05-28T03:41:57.703Z,11.25
2018-05-28T03:42:57.688Z,11.25
2018-05-28T03:43:57.677Z,11.25
2018-05-28T03:44:57.671Z,11.25
2018-05-28T03:45:57.661Z,11.25
2018-05-28T03:46:57.639Z,11.25
2018-05-28T03:47:57.631Z,11.25
2018-05-28T03:48:57.626Z,11.25
2018-05-28T03:49:57.610Z,11.25
2018-05-28T03:50:57.599Z,16.88
2018-05-28T03:51:57.588Z,16.88
2018-05-28T03:52:57.584Z,16.88
2018-05-28T03:53:57.562Z,16.88
2018-05-28T03:54:57.603Z,16.88
2018-05-28T03:55:57.540Z,16.88
2018-05-28T03:56:57.532Z,16.88
2018-05-28T03:57:57.520Z,16.88
2018-05-28T03:58:57.512Z,22.50
2018-05-28T03:59:57.501Z,22.50
2018-05-28T04:00:57.489Z,22.50
2018-05-28T04:01:57.477Z,22.50
2018-05-28T04:02:57.465Z,22.50
2018-05-28T04:03:57.451Z,22.50
2018-05-28T04:04:57.442Z,22.50
2018-05-28T04:05:57.429Z,22.50
2018-05-28T04:06:57.415Z,28.13
2018-05-28T04:07:57.413Z,28.13
2018-05-28T04:08:57.394Z,28.13
2018-05-28T04:09:57.378Z,28.13
2018-05-28T04:10:57.377Z,28.13
2018-05-28T04:11:57.359Z,33.75
2018-05-28T04:12:57.351Z,33.75
2018-05-28T04:13:57.347Z,33.75
2018-05-28T04:14:57.329Z,33.75
2018-05-28T04:15:57.314Z,33.75
2018-05-28T04:16:57.303Z,33.75
2018-05-28T04:17:57.296Z,39.38
2018-05-28T04:18:57.278Z,39.38
2018-05-28T04:19:57.272Z,39.38
2018-05-28T04:20:57.255Z,39.38
2018-05-28T04:21:57.346Z,39.38
2018-05-28T04:22:57.236Z,39.38
2018-05-28T04:23:57.224Z,39.38
2018-05-28T04:24:57.214Z,45.00
2018-05-28T04:25:57.243Z,45.00
2018-05-28T04:26:57.188Z,45.00
2018-05-28T04:27:57.333Z,45.00
2018-05-28T04:28:57.169Z,45.00
2018-05-28T04:29:57.162Z,45.00
2018-05-28T04:30:57.150Z,45.00
2018-05-28T04:31:57.241Z,45.00
2018-05-28T04:32:57.120Z,45.00
2018-05-28T04:33:57.120Z,45.00
2018-05-28T04:34:57.105Z,45.00
2018-05-28T04:35:57.108Z,45.00
2018-05-28T04:36:57.083Z,50.63
2018-05-28T04:37:57.072Z,50.63
2018-05-28T04:38:57.062Z,50.63
2018-05-28T04:39:57.047Z,50.63
2018-05-28T04:40:57.037Z,50.63
2018-05-28T04:41:57.034Z,50.63
2018-05-28T04:43:57.014Z,56.25
2018-05-28T04:44:57.002Z,56.25
2018-05-28T04:45:56.979Z,61.88
2018-05-28T04:46:56.970Z,61.88
2018-05-28T04:47:56.964Z,61.88
2018-05-28T04:48:56.946Z,67.50
2018-05-28T04:49:56.934Z,67.50
2018-05-28T04:50:56.933Z,67.50
2018-05-28T04:51:56.917Z,67.50
2018-05-28T04:52:56.915Z,67.50
2018-05-28T04:53:56.907Z,73.13
2018-05-28T04:54:56.892Z,73.13
2018-05-28T04:55:56.882Z,73.13
2018-05-28T04:56:56.867Z,73.13
2018-05-28T04:57:56.851Z,78.75
2018-05-28T04:58:56.848Z,78.75
2018-05-28T04:59:56.838Z,78.75
2018-05-28T05:00:56.823Z,78.75
2018-05-28T05:01:56.806Z,84.38
2018-05-28T05:02:56.852Z,84.38
2018-05-28T05:03:56.816Z,84.38
2018-05-28T05:04:56.778Z,84.38
2018-05-28T05:05:56.772Z,84.38
2018-05-28T05:06:56.762Z,84.38
2018-05-28T05:07:56.752Z,84.38
2018-05-28T05:08:56.740Z,84.38
2018-05-28T05:09:56.726Z,84.38
2018-05-28T05:10:56.719Z,84.38
2018-05-28T05:11:56.707Z,84.38
2018-05-28T05:12:56.700Z,78.75
2018-05-28T05:13:56.688Z,84.38
2018-05-28T05:14:56.675Z,78.75
2018-05-28T05:15:56.668Z,73.13
2018-05-28T05:16:56.659Z,73.13
2018-05-28T05:17:56.646Z,73.13
2018-05-28T05:18:56.633Z,73.13
2018-05-28T05:19:56.625Z,78.75
2018-05-28T05:20:56.621Z,78.75
2018-05-28T05:21:56.604Z,78.75
2018-05-28T05:22:56.588Z,78.75
2018-05-28T05:23:56.579Z,78.75
2018-05-28T05:24:56.565Z,78.75
2018-05-28T05:25:56.566Z,73.13
2018-05-28T05:26:56.551Z,67.50
2018-05-28T05:27:56.555Z,67.50
2018-05-28T05:28:56.530Z,67.50
2018-05-28T05:29:56.538Z,73.13
2018-05-28T05:30:56.519Z,73.13
2018-05-28T05:31:56.502Z,78.75
2018-05-28T05:32:56.489Z,84.38
2018-05-28T05:33:56.476Z,84.38
2018-05-28T05:34:56.472Z,78.75
2018-05-28T05:35:56.466Z,78.75
2018-05-28T05:36:56.450Z,78.75
2018-05-28T05:37:56.444Z,78.75
2018-05-28T05:38:56.434Z,78.75
2018-05-28T05:39:56.425Z,78.75
2018-05-28T05:40:56.405Z,73.13
2018-05-28T05:41:56.392Z,78.75
2018-05-28T05:42:56.389Z,78.75
2018-05-28T05:43:56.380Z,84.38
2018-05-28T05:44:56.370Z,90.00
2018-05-28T05:45:56.355Z,90.00
2018-05-28T05:46:56.345Z,90.00
2018-05-28T05:47:56.337Z,95.63
2018-05-28T05:48:56.327Z,90.00
2018-05-28T05:49:56.338Z,90.00
2018-05-28T05:50:56.305Z,90.00
2018-05-28T05:51:56.292Z,95.63
2018-05-28T05:52:56.283Z,106.88
2018-05-28T05:53:56.267Z,112.50
2018-05-28T05:54:56.269Z,118.13
2018-05-28T05:55:56.254Z,118.13
2018-05-28T05:56:56.238Z,118.13
2018-05-28T05:57:56.228Z,118.13
2018-05-28T05:58:56.217Z,118.13
2018-05-28T05:59:56.214Z,118.13
2018-05-28T06:00:56.200Z,112.50
2018-05-28T06:01:56.187Z,106.88
2018-05-28T06:02:56.184Z,118.13
2018-05-28T06:03:56.174Z,112.50
2018-05-28T06:04:56.157Z,112.50
2018-05-28T06:05:56.151Z,112.50
2018-05-28T06:06:56.142Z,112.50
2018-05-28T06:07:56.122Z,106.88
2018-05-28T06:08:56.113Z,106.88
2018-05-28T06:09:56.104Z,112.50
2018-05-28T06:10:56.093Z,112.50
2018-05-28T06:11:56.184Z,123.75
2018-05-28T06:12:56.072Z,123.75
2018-05-28T06:13:56.089Z,129.38
2018-05-28T06:14:56.046Z,135.00
2018-05-28T06:15:56.151Z,140.63
2018-05-28T06:16:56.032Z,146.25
2018-05-28T06:17:56.018Z,146.25
2018-05-28T06:18:56.008Z,151.88
2018-05-28T06:19:56.149Z,146.25
2018-05-28T06:20:55.990Z,146.25
2018-05-28T06:21:56.029Z,140.63
2018-05-28T06:22:55.973Z,135.00
2018-05-28T06:23:55.982Z,129.38
2018-05-28T06:24:55.947Z,129.38
2018-05-28T06:25:55.988Z,135.00
2018-05-28T06:26:55.929Z,140.63
2018-05-28T06:27:55.928Z,146.25
2018-05-28T06:28:55.915Z,146.25
2018-05-28T06:29:55.948Z,140.63
2018-05-28T06:30:55.887Z,140.63
2018-05-28T06:31:55.877Z,151.88
2018-05-28T06:32:55.867Z,151.88
2018-05-28T06:33:55.864Z,146.25
2018-05-28T06:35:55.842Z,129.38
2018-05-28T06:36:55.832Z,129.38
2018-05-28T06:37:55.825Z,140.63
2018-05-28T06:38:55.814Z,140.63
2018-05-28T06:39:55.817Z,135.00
2018-05-28T06:40:55.793Z,123.75
2018-05-28T06:41:55.787Z,123.75
2018-05-28T06:42:55.816Z,118.13
2018-05-28T06:43:55.768Z,123.75
2018-05-28T06:44:55.757Z,123.75
2018-05-28T06:45:55.756Z,129.38
2018-05-28T06:46:55.740Z,123.75
2018-05-28T06:47:55.727Z,129.38
2018-05-28T06:48:55.724Z,135.00
2018-05-28T06:49:55.717Z,129.38
2018-05-28T06:50:55.698Z,129.38
2018-05-28T06:52:55.685Z,157.50
2018-05-28T06:53:55.687Z,163.13
2018-05-28T06:54:55.672Z,168.75
2018-05-28T06:55:55.654Z,168.75
2018-05-28T06:56:55.644Z,168.75
2018-05-28T06:57:55.633Z,174.38
2018-05-28T06:58:55.621Z,174.38
2018-05-28T06:59:55.615Z,174.38
2018-05-28T07:01:55.595Z,174.38
2018-05-28T07:02:55.589Z,174.38
2018-05-28T07:03:55.583Z,174.38
2018-05-28T07:04:55.598Z,174.38
2018-05-28T07:05:55.568Z,174.38
2018-05-28T07:06:55.556Z,174.38
2018-05-28T07:07:55.543Z,174.38
2018-05-28T07:08:55.532Z,174.38
2018-05-28T07:09:55.524Z,174.38
2018-05-28T07:10:55.511Z,180.00
2018-05-28T07:11:55.535Z,180.00
2018-05-28T07:12:55.498Z,180.00
2018-05-28T07:13:55.488Z,180.00
2018-05-28T07:14:55.478Z,180.00
2018-05-28T07:15:55.468Z,185.63
2018-05-28T07:16:55.784Z,185.63
2018-05-28T07:17:56.054Z,185.63
2018-05-28T07:18:55.442Z,191.25
2018-05-28T07:19:55.444Z,191.25
2018-05-28T07:20:55.418Z,191.25
2018-05-28T07:21:55.418Z,191.25
2018-05-28T07:22:55.407Z,191.25
2018-05-28T07:23:55.398Z,191.25
2018-05-28T07:24:55.394Z,196.88
2018-05-28T07:25:55.383Z,196.88
2018-05-28T07:26:55.373Z,202.50
2018-05-28T07:27:55.367Z,202.50
2018-05-28T07:28:55.357Z,202.50
2018-05-28T07:29:55.342Z,202.50
2018-05-28T07:30:55.336Z,202.50
2018-05-28T07:31:55.333Z,202.50
2018-05-28T07:32:55.323Z,208.13
2018-05-28T07:33:55.317Z,208.13
2018-05-28T07:34:55.298Z,208.13
2018-05-28T07:35:55.301Z,208.13
2018-05-28T07:36:55.291Z,213.75
2018-05-28T07:37:55.281Z,213.75
2018-05-28T07:38:55.273Z,213.75
2018-05-28T07:39:55.265Z,213.75
2018-05-28T07:40:55.256Z,219.38
2018-05-28T07:41:55.244Z,219.38
2018-05-28T07:42:55.237Z,219.38
2018-05-28T07:43:55.240Z,219.38
2018-05-28T07:44:55.309Z,219.38
2018-05-28T07:45:55.214Z,219.38
2018-05-28T07:46:55.215Z,219.38
2018-05-28T07:47:55.201Z,219.38
2018-05-28T07:48:55.192Z,219.38
2018-05-28T07:49:55.190Z,225.00
2018-05-28T07:50:55.182Z,225.00
2018-05-28T07:51:55.182Z,225.00
2018-05-28T07:52:55.169Z,225.00
2018-05-28T07:53:55.154Z,225.00
2018-05-28T07:54:55.153Z,225.00
2018-05-28T07:55:55.147Z,225.00
2018-05-28T07:56:55.133Z,230.63
2018-05-28T07:57:55.123Z,230.63
2018-05-28T07:58:55.208Z,230.63
2018-05-28T07:59:55.122Z,236.25
2018-05-28T08:00:55.104Z,236.25
2018-05-28T08:01:55.103Z,236.25
2018-05-28T08:02:55.092Z,241.88
2018-05-28T08:03:55.084Z,241.88
2018-05-28T08:04:55.077Z,241.88
2018-05-28T08:05:55.075Z,241.88
2018-05-28T08:06:55.062Z,247.50
2018-05-28T08:07:55.063Z,247.50
2018-05-28T08:08:55.054Z,247.50
2018-05-28T08:09:55.044Z,247.50
2018-05-28T08:10:55.041Z,253.13
2018-05-28T08:11:55.030Z,258.75
2018-05-28T08:12:55.020Z,253.13
2018-05-28T08:13:55.013Z,253.13
2018-05-28T08:14:55.009Z,253.13
2018-05-28T08:15:54.996Z,253.13
2018-05-28T08:16:54.992Z,253.13
2018-05-28T08:17:54.992Z,253.13
2018-05-28T08:18:54.979Z,258.75
2018-05-28T08:19:54.969Z,258.75
2018-05-28T08:20:54.971Z,258.75
2018-05-28T08:21:54.963Z,258.75
2018-05-28T08:22:54.951Z,264.38
2018-05-28T08:23:54.949Z,264.38
2018-05-28T08:24:54.941Z,270.00
2018-05-28T08:25:54.938Z,270.00
2018-05-28T08:26:54.928Z,270.00
2018-05-28T08:27:54.917Z,275.63
2018-05-28T08:28:54.919Z,275.63
2018-05-28T08:29:54.913Z,286.88
2018-05-28T08:30:55.046Z,281.25
2018-05-28T08:31:54.902Z,281.25
2018-05-28T08:32:54.890Z,286.88
2018-05-28T08:33:54.890Z,298.13
2018-05-28T08:34:54.957Z,326.25
2018-05-28T08:35:54.879Z,461.25
2018-05-28T08:36:54.881Z,579.38
2018-05-28T08:37:54.879Z,748.13
2018-05-28T08:38:54.913Z,967.50
2018-05-28T08:39:54.861Z,1209.38
2018-05-28T08:40:54.864Z,1338.75
2018-05-28T08:41:54.896Z,1440.00
2018-05-28T08:42:54.857Z,1366.88
2018-05-28T08:43:54.844Z,1395.00
2018-05-28T08:44:54.848Z,1411.88
2018-05-28T08:45:54.838Z,1361.25
2018-05-28T08:46:54.841Z,1423.13
2018-05-28T08:47:54.843Z,1400.63
2018-05-28T08:48:54.842Z,1338.75
2018-05-28T08:49:54.842Z,1366.88
2018-05-28T08:50:54.845Z,1400.63
2018-05-28T08:51:54.835Z,1350.00
2018-05-28T08:52:54.831Z,1350.00
2018-05-28T08:53:54.835Z,1355.63
2018-05-28T08:54:54.832Z,1366.88
2018-05-28T08:55:54.831Z,1350.00
2018-05-28T08:56:54.832Z,1333.13
2018-05-28T08:57:54.842Z,1293.75
2018-05-28T08:58:54.832Z,1305.00
2018-05-28T08:59:54.832Z,1344.38
2018-05-28T09:00:54.832Z,1344.38
2018-05-28T09:01:54.847Z,1321.88
2018-05-28T09:02:54.832Z,1333.13
2018-05-28T09:03:54.834Z,1265.63
2018-05-28T09:04:54.834Z,1243.13
2018-05-28T09:05:54.832Z,1248.75
2018-05-28T09:06:54.833Z,1305.00
2018-05-28T09:07:54.846Z,1231.88
2018-05-28T09:08:54.842Z,1192.50
2018-05-28T09:09:54.853Z,1248.75
2018-05-28T09:10:54.845Z,1254.38
2018-05-28T09:11:54.848Z,1226.25
2018-05-28T09:12:54.857Z,1254.38
2018-05-28T09:13:54.852Z,1299.38
2018-05-28T09:14:54.851Z,1288.13
2018-05-28T09:15:54.854Z,1226.25
2018-05-28T09:16:54.853Z,1209.38
2018-05-28T09:17:54.858Z,1265.63
2018-05-28T09:18:54.871Z,1237.50
2018-05-28T09:19:54.866Z,1237.50
2018-05-28T09:20:54.857Z,1248.75
2018-05-28T09:21:54.877Z,1361.25
2018-05-28T09:22:54.873Z,1248.75
2018-05-28T09:23:54.870Z,1215.00
2018-05-28T09:24:54.883Z,1231.88
2018-05-28T09:25:54.877Z,1198.13
2018-05-28T09:26:55.031Z,1119.38
2018-05-28T09:27:54.880Z,1136.25
2018-05-28T09:28:54.886Z,1108.13
2018-05-28T09:29:54.889Z,1051.88
2018-05-28T09:30:54.893Z,1091.25
2018-05-28T09:31:54.892Z,1074.38
2018-05-28T09:32:54.922Z,1080.00
2018-05-28T09:33:54.899Z,1102.50
2018-05-28T09:34:54.903Z,1080.00
2018-05-28T09:35:54.902Z,984.38
2018-05-28T09:36:54.915Z,1040.63
2018-05-28T09:37:54.911Z,1063.13
2018-05-28T09:38:54.914Z,1063.13
2018-05-28T09:39:55.047Z,1012.50
2018-05-28T09:40:54.915Z,1040.63
2018-05-28T09:41:54.921Z,1029.38
2018-05-28T09:42:54.922Z,821.25
2018-05-28T09:43:54.974Z,551.25
2018-05-28T09:44:54.930Z,421.88
2018-05-28T09:45:54.931Z,393.75
2018-05-28T09:46:54.931Z,405.00
2018-05-28T09:47:55.032Z,393.75
2018-05-28T09:48:54.932Z,393.75
2018-05-28T09:49:54.934Z,388.13
2018-05-28T09:50:54.949Z,376.88
2018-05-28T09:51:54.993Z,376.88
2018-05-28T09:52:54.938Z,393.75
2018-05-28T09:53:54.986Z,376.88
2018-05-28T09:54:54.948Z,371.25
2018-05-28T09:55:54.950Z,360.00
2018-05-28T09:56:54.949Z,360.00
2018-05-28T09:57:54.944Z,354.38
2018-05-28T09:58:54.948Z,354.38
2018-05-28T09:59:54.948Z,360.00
2018-05-28T10:00:54.955Z,354.38
2018-05-28T10:01:54.951Z,354.38
2018-05-28T10:02:54.953Z,348.75
2018-05-28T10:03:54.961Z,354.38
2018-05-28T10:04:54.997Z,348.75
2018-05-28T10:05:54.975Z,343.13
2018-05-28T10:06:54.958Z,343.13
2018-05-28T10:07:54.958Z,337.50
2018-05-28T10:08:54.987Z,326.25
2018-05-28T10:09:54.961Z,320.63
2018-05-28T10:10:54.962Z,331.88
2018-05-28T10:11:54.961Z,337.50
2018-05-28T10:12:55.086Z,343.13
2018-05-28T10:13:54.958Z,348.75
2018-05-28T10:14:55.013Z,348.75
2018-05-28T10:15:54.957Z,343.13
2018-05-28T10:16:55.012Z,348.75
2018-05-28T10:17:54.961Z,343.13
2018-05-28T10:18:54.958Z,343.13
2018-05-28T10:19:54.975Z,337.50
2018-05-28T10:20:54.961Z,343.13
2018-05-28T10:21:54.964Z,326.25
2018-05-28T10:22:54.964Z,320.63
2018-05-28T10:23:54.964Z,315.00
2018-05-28T10:24:54.959Z,315.00
2018-05-28T10:25:54.958Z,309.38
2018-05-28T10:26:54.961Z,309.38
2018-05-28T10:27:54.957Z,303.75
2018-05-28T10:28:54.954Z,303.75
2018-05-28T10:29:54.954Z,303.75
2018-05-28T10:30:54.955Z,303.75
2018-05-28T10:31:54.960Z,281.25
2018-05-28T10:32:54.959Z,286.88
2018-05-28T10:33:54.957Z,281.25
2018-05-28T10:34:54.948Z,286.88
2018-05-28T10:35:54.977Z,275.63
2018-05-28T10:36:54.958Z,275.63
2018-05-28T10:37:55.054Z,275.63
2018-05-28T10:38:54.949Z,275.63
2018-05-28T10:39:55.010Z,270.00
2018-05-28T10:40:55.056Z,270.00
2018-05-28T10:41:54.961Z,264.38
2018-05-28T10:42:54.955Z,270.00
2018-05-28T10:43:54.948Z,275.63
2018-05-28T10:44:54.941Z,275.63
2018-05-28T10:45:54.943Z,270.00
2018-05-28T10:46:54.941Z,270.00
2018-05-28T10:47:54.940Z,270.00
2018-05-28T10:48:54.935Z,270.00
2018-05-28T10:49:54.932Z,270.00
2018-05-28T10:50:54.932Z,264.38
2018-05-28T10:51:54.928Z,247.50
2018-05-28T10:52:54.921Z,225.00
2018-05-28T10:53:54.922Z,225.00
2018-05-28T10:54:54.924Z,230.63
2018-05-28T10:55:54.927Z,230.63
2018-05-28T10:56:54.924Z,230.63
2018-05-28T10:57:54.921Z,241.88
2018-05-28T10:58:54.915Z,247.50
2018-05-28T10:59:54.905Z,258.75
2018-05-28T11:00:55.002Z,258.75
2018-05-28T11:01:54.909Z,258.75
2018-05-28T11:02:54.996Z,258.75
2018-05-28T11:03:54.903Z,258.75
2018-05-28T11:04:54.900Z,258.75
2018-05-28T11:05:54.897Z,270.00
2018-05-28T11:06:54.991Z,275.63
2018-05-28T11:07:54.891Z,253.13
2018-05-28T11:08:54.890Z,253.13
2018-05-28T11:09:54.887Z,253.13
2018-05-28T11:10:54.887Z,253.13
2018-05-28T11:11:54.885Z,253.13
2018-05-28T11:12:54.873Z,253.13
2018-05-28T11:13:54.881Z,247.50
2018-05-28T11:14:54.871Z,253.13
2018-05-28T11:15:54.865Z,258.75
2018-05-28T11:16:54.861Z,258.75
2018-05-28T11:17:54.864Z,264.38
2018-05-28T11:18:54.861Z,264.38
2018-05-28T11:19:54.859Z,264.38
2018-05-28T11:20:54.858Z,258.75
2018-05-28T11:21:54.859Z,264.38
2018-05-28T11:22:54.854Z,258.75
2018-05-28T11:23:54.852Z,264.38
2018-05-28T11:24:54.851Z,253.13
2018-05-28T11:25:54.848Z,247.50
2018-05-28T11:26:54.845Z,253.13
2018-05-28T11:27:54.841Z,253.13
2018-05-28T11:28:54.829Z,213.75
2018-05-28T11:29:54.836Z,253.13
2018-05-28T11:30:54.833Z,247.50
2018-05-28T11:31:54.829Z,236.25
2018-05-28T11:32:54.829Z,241.88
2018-05-28T11:33:54.888Z,241.88
2018-05-28T11:34:54.824Z,236.25
2018-05-28T11:35:54.824Z,230.63
2018-05-28T11:36:54.823Z,236.25
2018-05-28T11:37:54.812Z,230.63
2018-05-28T11:38:54.809Z,236.25
2018-05-28T11:39:54.807Z,230.63
2018-05-28T11:40:54.807Z,236.25
2018-05-28T11:41:54.797Z,213.75
2018-05-28T11:42:54.900Z,236.25
2018-05-28T11:43:54.797Z,230.63
2018-05-28T11:44:54.796Z,225.00
2018-05-28T11:45:54.792Z,225.00
2018-05-28T11:46:54.789Z,225.00
2018-05-28T11:47:54.788Z,202.50
2018-05-28T11:48:54.784Z,213.75
2018-05-28T11:49:54.784Z,219.38
2018-05-28T11:50:54.783Z,236.25
2018-05-28T11:51:54.784Z,230.63
2018-05-28T11:52:54.776Z,236.25
2018-05-28T11:53:54.774Z,241.88
2018-05-28T11:54:54.779Z,241.88
2018-05-28T11:55:54.773Z,230.63
2018-05-28T11:56:54.771Z,219.38
2018-05-28T11:57:54.760Z,230.63
2018-05-28T11:58:54.770Z,225.00
2018-05-28T11:59:54.759Z,225.00
2018-05-28T12:00:54.756Z,219.38
2018-05-28T12:01:54.756Z,225.00
2018-05-28T12:02:54.760Z,225.00
2018-05-28T12:03:54.747Z,219.38
2018-05-28T12:04:54.751Z,230.63
2018-05-28T12:05:54.754Z,225.00
2018-05-28T12:06:54.745Z,236.25
2018-05-28T12:07:54.807Z,241.88
2018-05-28T12:08:54.731Z,247.50
2018-05-28T12:09:54.846Z,247.50
2018-05-28T12:10:54.739Z,241.88
2018-05-28T12:11:54.732Z,241.88
2018-05-28T12:12:54.726Z,236.25
2018-05-28T12:13:54.726Z,230.63
2018-05-28T12:14:54.733Z,230.63
2018-05-28T12:15:54.734Z,208.13
2018-05-28T12:16:54.722Z,225.00
2018-05-28T12:17:54.719Z,230.63
2018-05-28T12:18:54.717Z,225.00
2018-05-28T12:19:54.720Z,225.00
2018-05-28T12:20:54.706Z,225.00
2018-05-28T12:21:54.703Z,219.38
2018-05-28T12:22:54.711Z,208.13
2018-05-28T12:23:54.710Z,219.38
2018-05-28T12:24:54.704Z,213.75
2018-05-28T12:25:54.697Z,213.75
2018-05-28T12:26:54.697Z,208.13
2018-05-28T12:27:54.705Z,208.13
2018-05-28T12:28:54.691Z,202.50
2018-05-28T12:29:54.687Z,202.50
2018-05-28T12:30:54.688Z,208.13
2018-05-28T12:31:54.686Z,202.50
2018-05-28T12:32:54.683Z,196.88
2018-05-28T12:33:54.681Z,196.88
2018-05-28T12:34:54.678Z,191.25
2018-05-28T12:35:54.682Z,174.38
2018-05-28T12:36:54.676Z,196.88
2018-05-28T12:37:54.667Z,202.50
2018-05-28T12:38:54.669Z,208.13
2018-05-28T12:39:54.671Z,202.50
2018-05-28T12:40:54.672Z,202.50
2018-05-28T12:41:54.656Z,208.13
2018-05-28T12:42:54.657Z,208.13
2018-05-28T12:43:54.662Z,208.13
2018-05-28T12:44:54.650Z,202.50
2018-05-28T12:45:54.653Z,202.50
2018-05-28T12:46:54.646Z,202.50
2018-05-28T12:47:54.650Z,196.88
2018-05-28T12:48:54.642Z,196.88
2018-05-28T12:49:54.642Z,202.50
2018-05-28T12:50:54.640Z,196.88
2018-05-28T12:51:54.640Z,196.88
2018-05-28T12:52:54.637Z,202.50
2018-05-28T12:53:54.634Z,196.88
2018-05-28T12:54:54.631Z,202.50